sensor_id;sensor_type;location;lat;lon;timestamp;temperature;humidity
7196;DHT22;3639;51.308;5.624;2023-12-28T00:02:06;10.40;99.90
7196;DHT22;3639;51.308;5.624;2023-12-28T00:04:32;10.40;99.90
7196;DHT22;3639;51.308;5.624;2023-12-28T00:07:00;10.40;99.90
7196;DHT22;3639;51.308;5.624;2023-12-28T00:09:25;10.30;99.90
7196;DHT22;3639;51.308;5.624;2023-12-28T00:11:51;10.30;99.90
7196;DHT22;3639;51.308;5.624;2023-12-28T00:14:16;10.40;99.90
7196;DHT22;3639;51.308;5.624;2023-12-28T00:16:42;10.40;99.90
7196;DHT22;3639;51.308;5.624;2023-12-28T00:19:07;10.30;99.90
7196;DHT22;3639;51.308;5.624;2023-12-28T00:21:33;10.30;99.90
7196;DHT22;3639;51.308;5.624;2023-12-28T00:23:59;10.30;99.90
7196;DHT22;3639;51.308;5.624;2023-12-28T00:26:24;10.20;99.90
7196;DHT22;3639;51.308;5.624;2023-12-28T00:28:50;10.30;99.90
7196;DHT22;3639;51.308;5.624;2023-12-28T00:31:15;10.30;99.90
7196;DHT22;3639;51.308;5.624;2023-12-28T00:33:41;10.30;99.90
7196;DHT22;3639;51.308;5.624;2023-12-28T00:36:07;10.30;99.90
7196;DHT22;3639;51.308;5.624;2023-12-28T00:38:33;10.30;99.90
7196;DHT22;3639;51.308;5.624;2023-12-28T00:40:58;10.30;99.90
7196;DHT22;3639;51.308;5.624;2023-12-28T00:43:24;10.30;99.90
7196;DHT22;3639;51.308;5.624;2023-12-28T00:45:49;10.20;99.90
7196;DHT22;3639;51.308;5.624;2023-12-28T00:48:15;10.30;99.90
7196;DHT22;3639;51.308;5.624;2023-12-28T00:50:40;10.30;99.90
7196;DHT22;3639;51.308;5.624;2023-12-28T00:53:06;10.20;99.90
7196;DHT22;3639;51.308;5.624;2023-12-28T00:55:32;10.20;99.90
7196;DHT22;3639;51.308;5.624;2023-12-28T00:57:57;10.20;99.90
7196;DHT22;3639;51.308;5.624;2023-12-28T01:00:23;10.20;99.90
7196;DHT22;3639;51.308;5.624;2023-12-28T01:02:48;10.20;99.90
7196;DHT22;3639;51.308;5.624;2023-12-28T01:05:15;10.10;99.90
7196;DHT22;3639;51.308;5.624;2023-12-28T01:07:41;10.00;99.90
7196;DHT22;3639;51.308;5.624;2023-12-28T01:10:07;10.10;99.90
7196;DHT22;3639;51.308;5.624;2023-12-28T01:12:33;10.10;99.90
7196;DHT22;3639;51.308;5.624;2023-12-28T01:14:58;10.20;99.90
7196;DHT22;3639;51.308;5.624;2023-12-28T01:17:24;10.20;99.90
7196;DHT22;3639;51.308;5.624;2023-12-28T01:19:50;10.20;99.90
7196;DHT22;3639;51.308;5.624;2023-12-28T01:22:15;10.10;99.90
7196;DHT22;3639;51.308;5.624;2023-12-28T01:24:41;10.10;99.90
7196;DHT22;3639;51.308;5.624;2023-12-28T01:27:06;10.00;99.90
7196;DHT22;3639;51.308;5.624;2023-12-28T01:29:32;10.00;99.90
7196;DHT22;3639;51.308;5.624;2023-12-28T01:31:58;10.00;99.90
7196;DHT22;3639;51.308;5.624;2023-12-28T01:34:23;10.00;99.90
7196;DHT22;3639;51.308;5.624;2023-12-28T01:36:49;10.10;99.90
7196;DHT22;3639;51.308;5.624;2023-12-28T01:39:14;10.00;99.90
7196;DHT22;3639;51.308;5.624;2023-12-28T01:41:41;10.00;99.90
7196;DHT22;3639;51.308;5.624;2023-12-28T01:44:06;10.00;99.90
7196;DHT22;3639;51.308;5.624;2023-12-28T01:46:32;10.00;99.90
7196;DHT22;3639;51.308;5.624;2023-12-28T01:48:59;9.90;99.90
7196;DHT22;3639;51.308;5.624;2023-12-28T01:51:25;9.90;99.90
7196;DHT22;3639;51.308;5.624;2023-12-28T01:53:51;9.80;99.90
7196;DHT22;3639;51.308;5.624;2023-12-28T01:56:18;9.80;99.90
7196;DHT22;3639;51.308;5.624;2023-12-28T01:58:46;9.90;99.90
7196;DHT22;3639;51.308;5.624;2023-12-28T02:01:13;9.90;99.90
7196;DHT22;3639;51.308;5.624;2023-12-28T02:03:39;9.90;99.90
7196;DHT22;3639;51.308;5.624;2023-12-28T02:06:06;9.90;99.90
7196;DHT22;3639;51.308;5.624;2023-12-28T02:08:32;9.80;99.90
7196;DHT22;3639;51.308;5.624;2023-12-28T02:10:58;9.80;99.90
7196;DHT22;3639;51.308;5.624;2023-12-28T02:13:24;9.80;99.90
7196;DHT22;3639;51.308;5.624;2023-12-28T02:15:54;9.70;99.90
7196;DHT22;3639;51.308;5.624;2023-12-28T02:18:24;9.70;99.90
7196;DHT22;3639;51.308;5.624;2023-12-28T02:20:53;9.80;99.90
7196;DHT22;3639;51.308;5.624;2023-12-28T02:23:19;9.80;99.90
7196;DHT22;3639;51.308;5.624;2023-12-28T02:25:45;9.80;99.90
7196;DHT22;3639;51.308;5.624;2023-12-28T02:28:10;9.70;99.90
7196;DHT22;3639;51.308;5.624;2023-12-28T02:30:36;9.70;99.90
7196;DHT22;3639;51.308;5.624;2023-12-28T02:35:41;9.80;99.90
7196;DHT22;3639;51.308;5.624;2023-12-28T02:38:10;9.80;99.90
7196;DHT22;3639;51.308;5.624;2023-12-28T02:40:38;9.80;99.90
7196;DHT22;3639;51.308;5.624;2023-12-28T02:43:06;9.80;99.90
7196;DHT22;3639;51.308;5.624;2023-12-28T02:45:31;9.80;99.90
7196;DHT22;3639;51.308;5.624;2023-12-28T02:47:57;9.80;99.90
7196;DHT22;3639;51.308;5.624;2023-12-28T02:50:23;9.80;99.90
7196;DHT22;3639;51.308;5.624;2023-12-28T02:52:48;9.80;99.90
7196;DHT22;3639;51.308;5.624;2023-12-28T02:55:14;9.80;99.90
7196;DHT22;3639;51.308;5.624;2023-12-28T02:57:40;9.80;99.90
7196;DHT22;3639;51.308;5.624;2023-12-28T03:00:06;9.80;99.90
7196;DHT22;3639;51.308;5.624;2023-12-28T03:02:37;9.80;99.90
7196;DHT22;3639;51.308;5.624;2023-12-28T03:05:06;9.80;99.90
7196;DHT22;3639;51.308;5.624;2023-12-28T03:07:35;9.80;99.90
7196;DHT22;3639;51.308;5.624;2023-12-28T03:10:01;9.80;99.90
7196;DHT22;3639;51.308;5.624;2023-12-28T03:12:28;9.80;99.90
7196;DHT22;3639;51.308;5.624;2023-12-28T03:14:54;9.80;99.90
7196;DHT22;3639;51.308;5.624;2023-12-28T03:17:20;9.80;99.90
7196;DHT22;3639;51.308;5.624;2023-12-28T03:19:45;9.80;99.90
7196;DHT22;3639;51.308;5.624;2023-12-28T03:22:11;9.80;99.90
7196;DHT22;3639;51.308;5.624;2023-12-28T03:24:37;9.90;99.90
7196;DHT22;3639;51.308;5.624;2023-12-28T03:27:04;9.90;99.90
7196;DHT22;3639;51.308;5.624;2023-12-28T03:29:30;9.90;99.90
7196;DHT22;3639;51.308;5.624;2023-12-28T03:31:56;9.90;99.90
7196;DHT22;3639;51.308;5.624;2023-12-28T03:34:22;9.90;99.90
7196;DHT22;3639;51.308;5.624;2023-12-28T03:36:48;9.80;99.90
7196;DHT22;3639;51.308;5.624;2023-12-28T03:39:14;9.90;99.90
7196;DHT22;3639;51.308;5.624;2023-12-28T03:41:39;9.90;99.90
7196;DHT22;3639;51.308;5.624;2023-12-28T03:44:05;9.90;99.90
7196;DHT22;3639;51.308;5.624;2023-12-28T03:46:31;9.90;99.90
7196;DHT22;3639;51.308;5.624;2023-12-28T03:48:56;9.80;99.90
7196;DHT22;3639;51.308;5.624;2023-12-28T03:51:22;9.80;99.90
7196;DHT22;3639;51.308;5.624;2023-12-28T03:53:47;9.70;99.90
7196;DHT22;3639;51.308;5.624;2023-12-28T03:56:24;9.70;99.90
7196;DHT22;3639;51.308;5.624;2023-12-28T03:58:50;9.80;99.90
7196;DHT22;3639;51.308;5.624;2023-12-28T04:01:20;9.80;99.90
7196;DHT22;3639;51.308;5.624;2023-12-28T04:03:46;9.80;99.90
7196;DHT22;3639;51.308;5.624;2023-12-28T04:06:13;9.70;99.90
7196;DHT22;3639;51.308;5.624;2023-12-28T04:08:39;9.70;99.90
7196;DHT22;3639;51.308;5.624;2023-12-28T04:11:05;9.80;99.90
7196;DHT22;3639;51.308;5.624;2023-12-28T04:13:30;9.80;99.90
7196;DHT22;3639;51.308;5.624;2023-12-28T04:15:56;9.70;99.90
7196;DHT22;3639;51.308;5.624;2023-12-28T04:18:21;9.80;99.90
7196;DHT22;3639;51.308;5.624;2023-12-28T04:20:47;9.80;99.90
7196;DHT22;3639;51.308;5.624;2023-12-28T04:23:14;9.70;99.90
7196;DHT22;3639;51.308;5.624;2023-12-28T04:25:39;9.80;99.90
7196;DHT22;3639;51.308;5.624;2023-12-28T04:28:06;9.70;99.90
7196;DHT22;3639;51.308;5.624;2023-12-28T04:30:32;9.80;99.90
7196;DHT22;3639;51.308;5.624;2023-12-28T04:32:57;9.90;99.90
7196;DHT22;3639;51.308;5.624;2023-12-28T04:35:23;9.90;99.90
7196;DHT22;3639;51.308;5.624;2023-12-28T04:37:49;10.00;99.90
7196;DHT22;3639;51.308;5.624;2023-12-28T04:40:14;10.00;99.90
7196;DHT22;3639;51.308;5.624;2023-12-28T04:42:40;10.10;99.90
7196;DHT22;3639;51.308;5.624;2023-12-28T04:45:07;10.00;99.90
7196;DHT22;3639;51.308;5.624;2023-12-28T04:47:33;10.00;99.90
7196;DHT22;3639;51.308;5.624;2023-12-28T04:49:59;9.90;99.90
7196;DHT22;3639;51.308;5.624;2023-12-28T04:52:24;10.00;99.90
7196;DHT22;3639;51.308;5.624;2023-12-28T04:54:50;10.00;99.90
7196;DHT22;3639;51.308;5.624;2023-12-28T04:57:16;10.00;99.90
7196;DHT22;3639;51.308;5.624;2023-12-28T04:59:42;10.00;99.90
7196;DHT22;3639;51.308;5.624;2023-12-28T05:02:07;9.90;99.90
7196;DHT22;3639;51.308;5.624;2023-12-28T05:04:36;9.90;99.90
7196;DHT22;3639;51.308;5.624;2023-12-28T05:07:03;9.90;99.90
7196;DHT22;3639;51.308;5.624;2023-12-28T05:09:28;9.90;99.90
7196;DHT22;3639;51.308;5.624;2023-12-28T05:11:54;9.90;99.90
7196;DHT22;3639;51.308;5.624;2023-12-28T05:14:19;9.90;99.90
7196;DHT22;3639;51.308;5.624;2023-12-28T05:16:45;10.00;99.90
7196;DHT22;3639;51.308;5.624;2023-12-28T05:19:11;9.90;99.90
7196;DHT22;3639;51.308;5.624;2023-12-28T05:21:36;10.00;99.90
7196;DHT22;3639;51.308;5.624;2023-12-28T05:24:02;10.00;99.90
7196;DHT22;3639;51.308;5.624;2023-12-28T05:26:27;10.00;99.90
7196;DHT22;3639;51.308;5.624;2023-12-28T05:28:53;9.90;99.90
7196;DHT22;3639;51.308;5.624;2023-12-28T05:31:18;9.90;99.90
7196;DHT22;3639;51.308;5.624;2023-12-28T05:33:44;9.90;99.90
7196;DHT22;3639;51.308;5.624;2023-12-28T05:36:10;10.00;99.90
7196;DHT22;3639;51.308;5.624;2023-12-28T05:38:35;10.10;99.90
7196;DHT22;3639;51.308;5.624;2023-12-28T05:41:01;10.10;99.90
7196;DHT22;3639;51.308;5.624;2023-12-28T05:43:26;10.10;99.90
7196;DHT22;3639;51.308;5.624;2023-12-28T05:45:52;10.10;99.90
7196;DHT22;3639;51.308;5.624;2023-12-28T05:48:18;10.10;99.90
7196;DHT22;3639;51.308;5.624;2023-12-28T05:50:43;10.00;99.90
7196;DHT22;3639;51.308;5.624;2023-12-28T05:53:09;10.10;99.90
7196;DHT22;3639;51.308;5.624;2023-12-28T05:55:40;10.10;99.90
7196;DHT22;3639;51.308;5.624;2023-12-28T05:58:06;10.00;99.90
7196;DHT22;3639;51.308;5.624;2023-12-28T06:00:31;10.00;99.90
7196;DHT22;3639;51.308;5.624;2023-12-28T06:02:57;10.00;99.90
7196;DHT22;3639;51.308;5.624;2023-12-28T06:05:23;9.90;99.90
7196;DHT22;3639;51.308;5.624;2023-12-28T06:07:48;9.90;99.90
7196;DHT22;3639;51.308;5.624;2023-12-28T06:10:14;9.90;99.90
7196;DHT22;3639;51.308;5.624;2023-12-28T06:12:39;9.90;99.90
7196;DHT22;3639;51.308;5.624;2023-12-28T06:15:06;9.90;99.90
7196;DHT22;3639;51.308;5.624;2023-12-28T06:17:32;10.00;99.90
7196;DHT22;3639;51.308;5.624;2023-12-28T06:19:57;10.00;99.90
7196;DHT22;3639;51.308;5.624;2023-12-28T06:22:23;9.90;99.90
7196;DHT22;3639;51.308;5.624;2023-12-28T06:24:53;9.90;99.90
7196;DHT22;3639;51.308;5.624;2023-12-28T06:27:19;9.90;99.90
7196;DHT22;3639;51.308;5.624;2023-12-28T06:29:44;10.00;99.90
7196;DHT22;3639;51.308;5.624;2023-12-28T06:32:10;9.90;99.90
7196;DHT22;3639;51.308;5.624;2023-12-28T06:34:35;10.00;99.90
7196;DHT22;3639;51.308;5.624;2023-12-28T06:37:01;10.00;99.90
7196;DHT22;3639;51.308;5.624;2023-12-28T06:39:26;10.10;99.90
7196;DHT22;3639;51.308;5.624;2023-12-28T06:41:52;10.10;99.90
7196;DHT22;3639;51.308;5.624;2023-12-28T06:44:18;10.00;99.90
7196;DHT22;3639;51.308;5.624;2023-12-28T06:46:43;10.00;99.90
7196;DHT22;3639;51.308;5.624;2023-12-28T06:49:09;10.10;99.90
7196;DHT22;3639;51.308;5.624;2023-12-28T06:51:35;10.20;99.90
7196;DHT22;3639;51.308;5.624;2023-12-28T06:54:00;10.10;99.90
7196;DHT22;3639;51.308;5.624;2023-12-28T06:56:26;10.10;99.90
7196;DHT22;3639;51.308;5.624;2023-12-28T06:58:51;10.10;99.90
7196;DHT22;3639;51.308;5.624;2023-12-28T07:01:17;10.00;99.90
7196;DHT22;3639;51.308;5.624;2023-12-28T07:03:46;10.10;99.90
7196;DHT22;3639;51.308;5.624;2023-12-28T07:06:14;10.10;99.90
7196;DHT22;3639;51.308;5.624;2023-12-28T07:08:40;10.10;99.90
7196;DHT22;3639;51.308;5.624;2023-12-28T07:11:05;10.00;99.90
7196;DHT22;3639;51.308;5.624;2023-12-28T07:13:31;10.10;99.90
7196;DHT22;3639;51.308;5.624;2023-12-28T07:15:57;10.00;99.90
7196;DHT22;3639;51.308;5.624;2023-12-28T07:18:23;10.00;99.90
7196;DHT22;3639;51.308;5.624;2023-12-28T07:20:48;10.00;99.90
7196;DHT22;3639;51.308;5.624;2023-12-28T07:23:14;10.00;99.90
7196;DHT22;3639;51.308;5.624;2023-12-28T07:25:40;10.00;99.90
7196;DHT22;3639;51.308;5.624;2023-12-28T07:28:06;10.10;99.90
7196;DHT22;3639;51.308;5.624;2023-12-28T07:30:31;10.10;99.90
7196;DHT22;3639;51.308;5.624;2023-12-28T07:32:57;10.00;99.90
7196;DHT22;3639;51.308;5.624;2023-12-28T07:35:26;10.00;99.90
7196;DHT22;3639;51.308;5.624;2023-12-28T07:37:51;9.90;99.90
7196;DHT22;3639;51.308;5.624;2023-12-28T07:40:17;9.80;99.90
7196;DHT22;3639;51.308;5.624;2023-12-28T07:42:42;9.80;99.90
7196;DHT22;3639;51.308;5.624;2023-12-28T07:45:08;9.80;99.90
7196;DHT22;3639;51.308;5.624;2023-12-28T07:47:34;9.80;99.90
7196;DHT22;3639;51.308;5.624;2023-12-28T07:49:59;9.70;99.90
7196;DHT22;3639;51.308;5.624;2023-12-28T07:52:26;9.70;99.90
7196;DHT22;3639;51.308;5.624;2023-12-28T07:54:51;9.70;99.90
7196;DHT22;3639;51.308;5.624;2023-12-28T07:57:17;9.70;99.90
7196;DHT22;3639;51.308;5.624;2023-12-28T07:59:43;9.70;99.90
7196;DHT22;3639;51.308;5.624;2023-12-28T08:02:09;9.70;99.90
7196;DHT22;3639;51.308;5.624;2023-12-28T08:04:34;9.70;99.90
7196;DHT22;3639;51.308;5.624;2023-12-28T08:07:00;9.70;99.90
7196;DHT22;3639;51.308;5.624;2023-12-28T08:09:26;9.70;99.90
7196;DHT22;3639;51.308;5.624;2023-12-28T08:11:52;9.80;99.90
7196;DHT22;3639;51.308;5.624;2023-12-28T08:14:18;9.70;99.90
7196;DHT22;3639;51.308;5.624;2023-12-28T08:16:44;9.80;99.90
7196;DHT22;3639;51.308;5.624;2023-12-28T08:19:09;9.80;99.90
7196;DHT22;3639;51.308;5.624;2023-12-28T08:21:36;9.80;99.90
7196;DHT22;3639;51.308;5.624;2023-12-28T08:24:02;9.90;99.90
7196;DHT22;3639;51.308;5.624;2023-12-28T08:26:28;9.90;99.90
7196;DHT22;3639;51.308;5.624;2023-12-28T08:28:53;10.00;99.90
7196;DHT22;3639;51.308;5.624;2023-12-28T08:31:19;10.00;99.90
7196;DHT22;3639;51.308;5.624;2023-12-28T08:33:44;10.00;99.90
7196;DHT22;3639;51.308;5.624;2023-12-28T08:36:10;10.00;99.90
7196;DHT22;3639;51.308;5.624;2023-12-28T08:38:36;10.10;99.90
7196;DHT22;3639;51.308;5.624;2023-12-28T08:41:02;10.10;99.90
7196;DHT22;3639;51.308;5.624;2023-12-28T08:43:33;10.10;99.90
7196;DHT22;3639;51.308;5.624;2023-12-28T08:45:59;10.10;99.90
7196;DHT22;3639;51.308;5.624;2023-12-28T08:48:24;10.20;99.90
7196;DHT22;3639;51.308;5.624;2023-12-28T08:50:50;10.30;99.90
7196;DHT22;3639;51.308;5.624;2023-12-28T08:53:16;10.30;99.90
7196;DHT22;3639;51.308;5.624;2023-12-28T08:55:41;10.30;99.90
7196;DHT22;3639;51.308;5.624;2023-12-28T08:58:07;10.30;99.90
7196;DHT22;3639;51.308;5.624;2023-12-28T09:00:33;10.30;99.90
7196;DHT22;3639;51.308;5.624;2023-12-28T09:02:58;10.40;99.90
7196;DHT22;3639;51.308;5.624;2023-12-28T09:05:24;10.40;99.90
7196;DHT22;3639;51.308;5.624;2023-12-28T09:07:49;10.40;99.90
7196;DHT22;3639;51.308;5.624;2023-12-28T09:10:15;10.40;99.90
7196;DHT22;3639;51.308;5.624;2023-12-28T09:12:40;10.50;99.90
7196;DHT22;3639;51.308;5.624;2023-12-28T09:15:07;10.50;99.90
7196;DHT22;3639;51.308;5.624;2023-12-28T09:17:34;10.50;99.90
7196;DHT22;3639;51.308;5.624;2023-12-28T09:20:00;10.50;99.90
7196;DHT22;3639;51.308;5.624;2023-12-28T09:22:27;10.60;99.90
7196;DHT22;3639;51.308;5.624;2023-12-28T09:24:52;10.50;99.90
7196;DHT22;3639;51.308;5.624;2023-12-28T09:27:18;10.50;99.90
7196;DHT22;3639;51.308;5.624;2023-12-28T09:29:43;10.60;99.90
7196;DHT22;3639;51.308;5.624;2023-12-28T09:32:09;10.70;99.90
7196;DHT22;3639;51.308;5.624;2023-12-28T09:34:34;10.80;99.90
7196;DHT22;3639;51.308;5.624;2023-12-28T09:37:00;10.80;99.90
7196;DHT22;3639;51.308;5.624;2023-12-28T09:39:25;11.00;99.90
7196;DHT22;3639;51.308;5.624;2023-12-28T09:42:06;11.00;99.90
7196;DHT22;3639;51.308;5.624;2023-12-28T09:44:36;11.00;99.90
7196;DHT22;3639;51.308;5.624;2023-12-28T09:47:04;11.10;99.90
7196;DHT22;3639;51.308;5.624;2023-12-28T09:49:32;11.00;99.90
7196;DHT22;3639;51.308;5.624;2023-12-28T09:51:59;11.00;99.90
7196;DHT22;3639;51.308;5.624;2023-12-28T09:54:27;11.00;99.90
7196;DHT22;3639;51.308;5.624;2023-12-28T09:56:52;11.10;99.90
7196;DHT22;3639;51.308;5.624;2023-12-28T09:59:19;11.10;99.90
7196;DHT22;3639;51.308;5.624;2023-12-28T10:01:47;11.20;99.90
7196;DHT22;3639;51.308;5.624;2023-12-28T10:04:14;11.20;99.90
7196;DHT22;3639;51.308;5.624;2023-12-28T10:06:40;11.20;99.90
7196;DHT22;3639;51.308;5.624;2023-12-28T10:09:06;11.30;99.90
7196;DHT22;3639;51.308;5.624;2023-12-28T10:11:33;11.40;99.90
7196;DHT22;3639;51.308;5.624;2023-12-28T10:13:59;11.50;99.90
7196;DHT22;3639;51.308;5.624;2023-12-28T10:16:25;11.50;99.90
7196;DHT22;3639;51.308;5.624;2023-12-28T10:18:51;11.60;99.90
7196;DHT22;3639;51.308;5.624;2023-12-28T10:21:16;11.60;99.90
7196;DHT22;3639;51.308;5.624;2023-12-28T10:23:42;11.60;99.90
7196;DHT22;3639;51.308;5.624;2023-12-28T10:26:07;11.50;99.90
7196;DHT22;3639;51.308;5.624;2023-12-28T10:28:35;11.60;99.90
7196;DHT22;3639;51.308;5.624;2023-12-28T10:31:03;11.50;99.90
7196;DHT22;3639;51.308;5.624;2023-12-28T10:33:34;11.60;99.90
7196;DHT22;3639;51.308;5.624;2023-12-28T10:36:05;11.60;99.90
7196;DHT22;3639;51.308;5.624;2023-12-28T10:38:35;11.60;99.90
7196;DHT22;3639;51.308;5.624;2023-12-28T10:41:04;11.60;99.90
7196;DHT22;3639;51.308;5.624;2023-12-28T10:46:09;11.60;99.90
7196;DHT22;3639;51.308;5.624;2023-12-28T10:48:38;11.60;99.90
7196;DHT22;3639;51.308;5.624;2023-12-28T10:51:08;11.70;99.90
7196;DHT22;3639;51.308;5.624;2023-12-28T10:53:51;11.60;99.90
7196;DHT22;3639;51.308;5.624;2023-12-28T10:59:39;11.70;99.90
7196;DHT22;3639;51.308;5.624;2023-12-28T11:02:07;11.70;99.90
7196;DHT22;3639;51.308;5.624;2023-12-28T11:04:55;11.70;99.90
7196;DHT22;3639;51.308;5.624;2023-12-28T11:07:22;11.70;99.90
7196;DHT22;3639;51.308;5.624;2023-12-28T11:09:48;11.70;99.90
7196;DHT22;3639;51.308;5.624;2023-12-28T11:12:16;11.70;99.90
7196;DHT22;3639;51.308;5.624;2023-12-28T11:14:45;11.70;99.90
7196;DHT22;3639;51.308;5.624;2023-12-28T11:17:15;11.80;99.90
7196;DHT22;3639;51.308;5.624;2023-12-28T11:19:41;11.80;99.90
7196;DHT22;3639;51.308;5.624;2023-12-28T11:22:08;11.80;99.90
7196;DHT22;3639;51.308;5.624;2023-12-28T11:24:34;11.80;99.90
7196;DHT22;3639;51.308;5.624;2023-12-28T11:27:00;11.70;99.90
7196;DHT22;3639;51.308;5.624;2023-12-28T11:29:29;11.70;99.90
7196;DHT22;3639;51.308;5.624;2023-12-28T11:31:59;11.80;99.90
7196;DHT22;3639;51.308;5.624;2023-12-28T11:34:29;11.80;99.90
7196;DHT22;3639;51.308;5.624;2023-12-28T11:36:56;11.80;99.90
7196;DHT22;3639;51.308;5.624;2023-12-28T11:39:36;11.80;99.90
7196;DHT22;3639;51.308;5.624;2023-12-28T11:42:08;11.80;99.90
7196;DHT22;3639;51.308;5.624;2023-12-28T11:44:42;11.80;99.90
7196;DHT22;3639;51.308;5.624;2023-12-28T11:47:16;11.80;99.90
7196;DHT22;3639;51.308;5.624;2023-12-28T11:49:46;11.80;99.90
7196;DHT22;3639;51.308;5.624;2023-12-28T11:52:26;11.80;99.90
7196;DHT22;3639;51.308;5.624;2023-12-28T11:54:52;11.90;99.90
7196;DHT22;3639;51.308;5.624;2023-12-28T11:57:18;11.90;99.90
7196;DHT22;3639;51.308;5.624;2023-12-28T11:59:44;12.00;99.90
7196;DHT22;3639;51.308;5.624;2023-12-28T12:02:10;12.00;99.90
7196;DHT22;3639;51.308;5.624;2023-12-28T12:04:36;12.00;99.90
7196;DHT22;3639;51.308;5.624;2023-12-28T12:07:03;12.00;99.90
7196;DHT22;3639;51.308;5.624;2023-12-28T12:09:29;12.00;99.90
7196;DHT22;3639;51.308;5.624;2023-12-28T12:12:02;12.00;99.90
7196;DHT22;3639;51.308;5.624;2023-12-28T12:14:29;12.00;99.90
7196;DHT22;3639;51.308;5.624;2023-12-28T12:16:56;12.00;99.90
7196;DHT22;3639;51.308;5.624;2023-12-28T12:19:25;12.00;99.90
7196;DHT22;3639;51.308;5.624;2023-12-28T12:21:57;12.00;99.90
7196;DHT22;3639;51.308;5.624;2023-12-28T12:24:23;12.00;99.90
7196;DHT22;3639;51.308;5.624;2023-12-28T12:26:50;11.90;99.90
7196;DHT22;3639;51.308;5.624;2023-12-28T12:29:16;11.90;99.90
7196;DHT22;3639;51.308;5.624;2023-12-28T12:31:42;11.90;99.90
7196;DHT22;3639;51.308;5.624;2023-12-28T12:34:09;11.90;99.90
7196;DHT22;3639;51.308;5.624;2023-12-28T12:36:35;11.90;99.90
7196;DHT22;3639;51.308;5.624;2023-12-28T12:39:01;11.90;99.90
7196;DHT22;3639;51.308;5.624;2023-12-28T12:41:28;11.90;99.90
7196;DHT22;3639;51.308;5.624;2023-12-28T12:43:54;11.90;99.90
7196;DHT22;3639;51.308;5.624;2023-12-28T12:46:22;11.90;99.90
7196;DHT22;3639;51.308;5.624;2023-12-28T12:48:58;11.90;99.90
7196;DHT22;3639;51.308;5.624;2023-12-28T12:51:28;11.90;99.90
7196;DHT22;3639;51.308;5.624;2023-12-28T12:54:00;11.90;99.90
7196;DHT22;3639;51.308;5.624;2023-12-28T12:56:28;11.90;99.90
7196;DHT22;3639;51.308;5.624;2023-12-28T12:58:55;11.90;99.90
7196;DHT22;3639;51.308;5.624;2023-12-28T13:01:21;11.90;99.90
7196;DHT22;3639;51.308;5.624;2023-12-28T13:03:46;11.90;99.90
7196;DHT22;3639;51.308;5.624;2023-12-28T13:06:12;12.00;99.90
7196;DHT22;3639;51.308;5.624;2023-12-28T13:08:38;12.00;99.90
7196;DHT22;3639;51.308;5.624;2023-12-28T13:11:04;11.90;99.90
7196;DHT22;3639;51.308;5.624;2023-12-28T13:13:32;11.90;99.90
7196;DHT22;3639;51.308;5.624;2023-12-28T13:15:58;12.00;99.90
7196;DHT22;3639;51.308;5.624;2023-12-28T13:18:24;11.90;99.90
7196;DHT22;3639;51.308;5.624;2023-12-28T13:20:49;11.90;99.90
7196;DHT22;3639;51.308;5.624;2023-12-28T13:23:15;11.90;99.90
7196;DHT22;3639;51.308;5.624;2023-12-28T13:25:40;11.90;99.90
7196;DHT22;3639;51.308;5.624;2023-12-28T13:28:06;11.80;99.90
7196;DHT22;3639;51.308;5.624;2023-12-28T13:30:32;11.80;99.90
7196;DHT22;3639;51.308;5.624;2023-12-28T13:32:57;11.90;99.90
7196;DHT22;3639;51.308;5.624;2023-12-28T13:35:23;11.90;99.90
7196;DHT22;3639;51.308;5.624;2023-12-28T13:37:49;11.90;99.90
7196;DHT22;3639;51.308;5.624;2023-12-28T13:40:14;11.90;99.90
7196;DHT22;3639;51.308;5.624;2023-12-28T13:42:41;11.90;99.90
7196;DHT22;3639;51.308;5.624;2023-12-28T13:45:07;11.90;99.90
7196;DHT22;3639;51.308;5.624;2023-12-28T13:47:32;11.80;99.90
7196;DHT22;3639;51.308;5.624;2023-12-28T13:49:58;11.80;99.90
7196;DHT22;3639;51.308;5.624;2023-12-28T13:52:23;11.80;99.90
7196;DHT22;3639;51.308;5.624;2023-12-28T13:54:49;11.80;99.90
7196;DHT22;3639;51.308;5.624;2023-12-28T13:57:15;11.80;99.90
7196;DHT22;3639;51.308;5.624;2023-12-28T13:59:40;11.80;99.90
7196;DHT22;3639;51.308;5.624;2023-12-28T14:02:06;11.70;99.90
7196;DHT22;3639;51.308;5.624;2023-12-28T14:04:31;11.70;99.90
7196;DHT22;3639;51.308;5.624;2023-12-28T14:06:57;11.70;99.90
7196;DHT22;3639;51.308;5.624;2023-12-28T14:09:23;11.70;99.90
7196;DHT22;3639;51.308;5.624;2023-12-28T14:11:48;11.60;99.90
7196;DHT22;3639;51.308;5.624;2023-12-28T14:14:14;11.60;99.90
7196;DHT22;3639;51.308;5.624;2023-12-28T14:16:40;11.60;99.90
7196;DHT22;3639;51.308;5.624;2023-12-28T14:19:06;11.50;99.90
7196;DHT22;3639;51.308;5.624;2023-12-28T14:21:38;11.50;99.90
7196;DHT22;3639;51.308;5.624;2023-12-28T14:24:05;11.50;99.90
7196;DHT22;3639;51.308;5.624;2023-12-28T14:26:32;11.50;99.90
7196;DHT22;3639;51.308;5.624;2023-12-28T14:28:59;11.60;99.90
7196;DHT22;3639;51.308;5.624;2023-12-28T14:31:25;11.50;99.90
7196;DHT22;3639;51.308;5.624;2023-12-28T14:33:52;11.50;99.90
7196;DHT22;3639;51.308;5.624;2023-12-28T14:38:46;11.50;99.90
7196;DHT22;3639;51.308;5.624;2023-12-28T14:41:12;11.50;99.90
7196;DHT22;3639;51.308;5.624;2023-12-28T14:43:37;11.50;99.90
7196;DHT22;3639;51.308;5.624;2023-12-28T14:46:03;11.60;99.90
7196;DHT22;3639;51.308;5.624;2023-12-28T14:48:30;11.60;99.90
7196;DHT22;3639;51.308;5.624;2023-12-28T14:50:57;11.50;99.90
7196;DHT22;3639;51.308;5.624;2023-12-28T14:53:22;11.40;99.90
7196;DHT22;3639;51.308;5.624;2023-12-28T14:55:51;11.40;99.90
7196;DHT22;3639;51.308;5.624;2023-12-28T14:58:16;11.40;99.90
7196;DHT22;3639;51.308;5.624;2023-12-28T15:00:44;11.40;99.90
7196;DHT22;3639;51.308;5.624;2023-12-28T15:03:10;11.40;99.90
7196;DHT22;3639;51.308;5.624;2023-12-28T15:05:36;11.40;99.90
7196;DHT22;3639;51.308;5.624;2023-12-28T15:08:02;11.40;99.90
7196;DHT22;3639;51.308;5.624;2023-12-28T15:10:28;11.40;99.90
7196;DHT22;3639;51.308;5.624;2023-12-28T15:12:54;11.50;99.90
7196;DHT22;3639;51.308;5.624;2023-12-28T15:15:20;11.50;99.90
7196;DHT22;3639;51.308;5.624;2023-12-28T15:17:45;11.40;99.90
7196;DHT22;3639;51.308;5.624;2023-12-28T15:20:11;11.40;99.90
7196;DHT22;3639;51.308;5.624;2023-12-28T15:22:38;11.40;99.90
7196;DHT22;3639;51.308;5.624;2023-12-28T15:25:04;11.40;99.90
7196;DHT22;3639;51.308;5.624;2023-12-28T15:27:32;11.30;99.90
7196;DHT22;3639;51.308;5.624;2023-12-28T15:29:57;11.30;99.90
7196;DHT22;3639;51.308;5.624;2023-12-28T15:32:23;11.30;99.90
7196;DHT22;3639;51.308;5.624;2023-12-28T15:34:48;11.30;99.90
7196;DHT22;3639;51.308;5.624;2023-12-28T15:37:14;11.20;99.90
7196;DHT22;3639;51.308;5.624;2023-12-28T15:39:39;11.30;99.90
7196;DHT22;3639;51.308;5.624;2023-12-28T15:42:07;11.30;99.90
7196;DHT22;3639;51.308;5.624;2023-12-28T15:44:32;11.20;99.90
7196;DHT22;3639;51.308;5.624;2023-12-28T15:46:58;11.30;99.90
7196;DHT22;3639;51.308;5.624;2023-12-28T15:49:24;11.30;99.90
7196;DHT22;3639;51.308;5.624;2023-12-28T15:51:49;11.20;99.90
7196;DHT22;3639;51.308;5.624;2023-12-28T15:54:15;11.20;99.90
7196;DHT22;3639;51.308;5.624;2023-12-28T15:56:40;11.20;99.90
7196;DHT22;3639;51.308;5.624;2023-12-28T15:59:09;11.20;99.90
7196;DHT22;3639;51.308;5.624;2023-12-28T16:01:34;11.00;99.90
7196;DHT22;3639;51.308;5.624;2023-12-28T16:04:00;11.00;99.90
7196;DHT22;3639;51.308;5.624;2023-12-28T16:06:26;11.00;99.90
7196;DHT22;3639;51.308;5.624;2023-12-28T16:08:51;10.90;99.90
7196;DHT22;3639;51.308;5.624;2023-12-28T16:11:17;10.90;99.90
7196;DHT22;3639;51.308;5.624;2023-12-28T16:13:43;10.90;99.90